sensor_id;sensor_type;location;lat;lon;timestamp;temperature;humidity
2453;DHT22;1238;47.994;7.854;2022-08-19T00:02:01;19.90;99.90
2453;DHT22;1238;47.994;7.854;2022-08-19T00:04:35;20.10;99.90
2453;DHT22;1238;47.994;7.854;2022-08-19T00:07:08;19.70;99.90
2453;DHT22;1238;47.994;7.854;2022-08-19T00:09:41;19.80;99.90
2453;DHT22;1238;47.994;7.854;2022-08-19T00:12:13;20.30;99.90
2453;DHT22;1238;47.994;7.854;2022-08-19T00:14:46;20.60;99.90
2453;DHT22;1238;47.994;7.854;2022-08-19T00:17:18;21.20;99.90
2453;DHT22;1238;47.994;7.854;2022-08-19T00:19:50;20.70;99.90
2453;DHT22;1238;47.994;7.854;2022-08-19T00:22:22;19.90;99.90
2453;DHT22;1238;47.994;7.854;2022-08-19T00:24:54;19.90;99.90
2453;DHT22;1238;47.994;7.854;2022-08-19T00:27:27;20.30;99.90
2453;DHT22;1238;47.994;7.854;2022-08-19T00:30:00;20.10;99.90
2453;DHT22;1238;47.994;7.854;2022-08-19T00:32:34;20.30;99.90
2453;DHT22;1238;47.994;7.854;2022-08-19T00:35:06;20.40;99.90
2453;DHT22;1238;47.994;7.854;2022-08-19T00:37:39;20.30;99.90
2453;DHT22;1238;47.994;7.854;2022-08-19T00:40:17;20.50;99.90
2453;DHT22;1238;47.994;7.854;2022-08-19T00:42:51;20.70;99.90
2453;DHT22;1238;47.994;7.854;2022-08-19T00:45:27;20.80;99.90
2453;DHT22;1238;47.994;7.854;2022-08-19T00:48:03;21.00;99.90
2453;DHT22;1238;47.994;7.854;2022-08-19T00:50:47;20.80;99.90
2453;DHT22;1238;47.994;7.854;2022-08-19T00:53:24;20.80;99.90
2453;DHT22;1238;47.994;7.854;2022-08-19T00:56:00;20.60;99.90
2453;DHT22;1238;47.994;7.854;2022-08-19T00:58:34;19.90;99.90
2453;DHT22;1238;47.994;7.854;2022-08-19T01:01:06;20.30;99.90
2453;DHT22;1238;47.994;7.854;2022-08-19T01:03:42;19.90;99.90
2453;DHT22;1238;47.994;7.854;2022-08-19T01:06:30;20.00;99.90
2453;DHT22;1238;47.994;7.854;2022-08-19T01:09:05;19.90;99.90
2453;DHT22;1238;47.994;7.854;2022-08-19T01:11:41;20.80;99.90
2453;DHT22;1238;47.994;7.854;2022-08-19T01:14:15;20.30;99.90
2453;DHT22;1238;47.994;7.854;2022-08-19T01:16:49;20.10;99.90
2453;DHT22;1238;47.994;7.854;2022-08-19T01:19:29;19.70;99.90
2453;DHT22;1238;47.994;7.854;2022-08-19T01:25:04;19.90;99.90
2453;DHT22;1238;47.994;7.854;2022-08-19T01:27:48;19.90;99.90
2453;DHT22;1238;47.994;7.854;2022-08-19T01:30:30;19.50;99.90
2453;DHT22;1238;47.994;7.854;2022-08-19T01:33:03;19.90;99.90
2453;DHT22;1238;47.994;7.854;2022-08-19T01:35:37;20.00;99.90
2453;DHT22;1238;47.994;7.854;2022-08-19T01:38:10;20.40;99.90
2453;DHT22;1238;47.994;7.854;2022-08-19T01:40:50;20.30;99.90
2453;DHT22;1238;47.994;7.854;2022-08-19T01:43:23;20.20;99.90
2453;DHT22;1238;47.994;7.854;2022-08-19T01:45:55;19.80;99.90
2453;DHT22;1238;47.994;7.854;2022-08-19T01:48:33;20.00;99.90
2453;DHT22;1238;47.994;7.854;2022-08-19T01:51:07;19.80;99.90
2453;DHT22;1238;47.994;7.854;2022-08-19T01:53:40;19.70;99.90
2453;DHT22;1238;47.994;7.854;2022-08-19T01:56:13;20.00;99.90
2453;DHT22;1238;47.994;7.854;2022-08-19T01:58:47;20.70;99.90
2453;DHT22;1238;47.994;7.854;2022-08-19T02:01:22;21.00;99.90
2453;DHT22;1238;47.994;7.854;2022-08-19T02:04:02;20.60;99.90
2453;DHT22;1238;47.994;7.854;2022-08-19T02:06:34;20.50;99.90
2453;DHT22;1238;47.994;7.854;2022-08-19T02:09:07;20.20;99.90
2453;DHT22;1238;47.994;7.854;2022-08-19T02:11:41;19.70;99.90
2453;DHT22;1238;47.994;7.854;2022-08-19T02:14:13;19.70;99.90
2453;DHT22;1238;47.994;7.854;2022-08-19T02:16:46;19.60;99.90
2453;DHT22;1238;47.994;7.854;2022-08-19T02:19:18;20.20;99.90
2453;DHT22;1238;47.994;7.854;2022-08-19T02:21:51;20.40;99.90
2453;DHT22;1238;47.994;7.854;2022-08-19T02:24:23;19.80;99.90
2453;DHT22;1238;47.994;7.854;2022-08-19T02:26:56;19.60;99.90
2453;DHT22;1238;47.994;7.854;2022-08-19T02:29:29;19.80;99.90
2453;DHT22;1238;47.994;7.854;2022-08-19T02:32:01;19.50;99.90
2453;DHT22;1238;47.994;7.854;2022-08-19T02:34:33;19.90;99.90
2453;DHT22;1238;47.994;7.854;2022-08-19T02:37:06;20.00;99.90
2453;DHT22;1238;47.994;7.854;2022-08-19T02:39:58;20.20;99.90
2453;DHT22;1238;47.994;7.854;2022-08-19T02:42:31;20.20;99.90
2453;DHT22;1238;47.994;7.854;2022-08-19T02:45:04;20.30;99.90
2453;DHT22;1238;47.994;7.854;2022-08-19T02:47:37;19.50;99.90
2453;DHT22;1238;47.994;7.854;2022-08-19T02:50:09;19.90;99.90
2453;DHT22;1238;47.994;7.854;2022-08-19T02:52:41;19.60;99.90
2453;DHT22;1238;47.994;7.854;2022-08-19T02:55:14;19.90;99.90
2453;DHT22;1238;47.994;7.854;2022-08-19T02:57:47;19.70;99.90
2453;DHT22;1238;47.994;7.854;2022-08-19T03:00:19;19.90;99.90
2453;DHT22;1238;47.994;7.854;2022-08-19T03:02:51;19.60;99.90
2453;DHT22;1238;47.994;7.854;2022-08-19T03:05:24;20.00;99.90
2453;DHT22;1238;47.994;7.854;2022-08-19T03:08:18;20.00;99.90
2453;DHT22;1238;47.994;7.854;2022-08-19T03:10:52;20.00;99.90
2453;DHT22;1238;47.994;7.854;2022-08-19T03:13:25;20.10;99.90
2453;DHT22;1238;47.994;7.854;2022-08-19T03:15:57;20.00;99.90
2453;DHT22;1238;47.994;7.854;2022-08-19T03:18:29;20.10;99.90
2453;DHT22;1238;47.994;7.854;2022-08-19T03:21:02;20.00;99.90
2453;DHT22;1238;47.994;7.854;2022-08-19T03:23:35;19.90;99.90
2453;DHT22;1238;47.994;7.854;2022-08-19T03:26:07;19.30;99.90
2453;DHT22;1238;47.994;7.854;2022-08-19T03:28:48;19.40;99.90
2453;DHT22;1238;47.994;7.854;2022-08-19T03:31:30;19.70;99.90
2453;DHT22;1238;47.994;7.854;2022-08-19T03:34:26;20.00;99.90
2453;DHT22;1238;47.994;7.854;2022-08-19T03:37:07;19.80;99.90
2453;DHT22;1238;47.994;7.854;2022-08-19T03:39:40;19.90;99.90
2453;DHT22;1238;47.994;7.854;2022-08-19T03:42:12;20.00;99.90
2453;DHT22;1238;47.994;7.854;2022-08-19T03:45:05;19.80;99.90
2453;DHT22;1238;47.994;7.854;2022-08-19T03:47:39;20.10;99.90
2453;DHT22;1238;47.994;7.854;2022-08-19T03:50:11;20.30;99.90
2453;DHT22;1238;47.994;7.854;2022-08-19T03:52:47;20.10;99.90
2453;DHT22;1238;47.994;7.854;2022-08-19T03:55:19;20.40;99.90
2453;DHT22;1238;47.994;7.854;2022-08-19T03:57:51;20.30;99.90
2453;DHT22;1238;47.994;7.854;2022-08-19T04:00:30;19.80;99.90
2453;DHT22;1238;47.994;7.854;2022-08-19T04:03:02;19.50;99.90
2453;DHT22;1238;47.994;7.854;2022-08-19T04:05:34;19.40;99.90
2453;DHT22;1238;47.994;7.854;2022-08-19T04:08:06;19.80;99.90
2453;DHT22;1238;47.994;7.854;2022-08-19T04:10:44;20.00;99.90
2453;DHT22;1238;47.994;7.854;2022-08-19T04:13:16;20.40;99.90
2453;DHT22;1238;47.994;7.854;2022-08-19T04:15:49;20.40;99.90
2453;DHT22;1238;47.994;7.854;2022-08-19T04:18:21;19.70;99.90
2453;DHT22;1238;47.994;7.854;2022-08-19T04:20:53;19.70;99.90
2453;DHT22;1238;47.994;7.854;2022-08-19T04:23:26;19.40;99.90
2453;DHT22;1238;47.994;7.854;2022-08-19T04:26:00;20.00;99.90
2453;DHT22;1238;47.994;7.854;2022-08-19T04:28:35;20.00;99.90
2453;DHT22;1238;47.994;7.854;2022-08-19T04:31:14;19.50;99.90
2453;DHT22;1238;47.994;7.854;2022-08-19T04:33:46;19.00;99.90
2453;DHT22;1238;47.994;7.854;2022-08-19T04:36:26;19.00;99.90
2453;DHT22;1238;47.994;7.854;2022-08-19T04:39:04;19.50;99.90
2453;DHT22;1238;47.994;7.854;2022-08-19T04:41:36;19.50;99.90
2453;DHT22;1238;47.994;7.854;2022-08-19T04:44:27;19.20;99.90
2453;DHT22;1238;47.994;7.854;2022-08-19T04:47:04;19.10;99.90
2453;DHT22;1238;47.994;7.854;2022-08-19T04:49:42;19.10;99.90
2453;DHT22;1238;47.994;7.854;2022-08-19T04:52:14;19.10;99.90
2453;DHT22;1238;47.994;7.854;2022-08-19T04:54:46;19.10;99.90
2453;DHT22;1238;47.994;7.854;2022-08-19T04:57:18;19.30;99.90
2453;DHT22;1238;47.994;7.854;2022-08-19T04:59:54;19.60;99.90
2453;DHT22;1238;47.994;7.854;2022-08-19T05:02:26;19.30;99.90
2453;DHT22;1238;47.994;7.854;2022-08-19T05:04:59;19.10;99.90
2453;DHT22;1238;47.994;7.854;2022-08-19T05:07:33;19.20;99.90
2453;DHT22;1238;47.994;7.854;2022-08-19T05:10:06;20.20;99.90
2453;DHT22;1238;47.994;7.854;2022-08-19T05:12:39;20.30;99.90
2453;DHT22;1238;47.994;7.854;2022-08-19T05:15:11;20.30;99.90
2453;DHT22;1238;47.994;7.854;2022-08-19T05:17:44;20.00;99.90
2453;DHT22;1238;47.994;7.854;2022-08-19T05:20:40;19.60;99.90
2453;DHT22;1238;47.994;7.854;2022-08-19T05:23:30;19.50;99.90
2453;DHT22;1238;47.994;7.854;2022-08-19T05:26:03;19.40;99.90
2453;DHT22;1238;47.994;7.854;2022-08-19T05:28:35;19.20;99.90
2453;DHT22;1238;47.994;7.854;2022-08-19T05:31:08;19.00;99.90
2453;DHT22;1238;47.994;7.854;2022-08-19T05:33:40;19.60;99.90
2453;DHT22;1238;47.994;7.854;2022-08-19T05:36:12;19.10;99.90
2453;DHT22;1238;47.994;7.854;2022-08-19T05:38:46;19.10;99.90
2453;DHT22;1238;47.994;7.854;2022-08-19T05:41:20;19.20;99.90
2453;DHT22;1238;47.994;7.854;2022-08-19T05:43:53;19.30;99.90
2453;DHT22;1238;47.994;7.854;2022-08-19T05:46:25;19.30;99.90
2453;DHT22;1238;47.994;7.854;2022-08-19T05:48:58;19.40;99.90
2453;DHT22;1238;47.994;7.854;2022-08-19T05:51:31;19.50;99.90
2453;DHT22;1238;47.994;7.854;2022-08-19T05:54:05;19.70;99.90
2453;DHT22;1238;47.994;7.854;2022-08-19T05:56:38;20.40;99.90
2453;DHT22;1238;47.994;7.854;2022-08-19T05:59:10;19.60;99.90
2453;DHT22;1238;47.994;7.854;2022-08-19T06:01:45;19.60;99.90
2453;DHT22;1238;47.994;7.854;2022-08-19T06:04:19;19.80;99.90
2453;DHT22;1238;47.994;7.854;2022-08-19T06:06:54;19.70;99.90
2453;DHT22;1238;47.994;7.854;2022-08-19T06:09:26;20.20;99.90
2453;DHT22;1238;47.994;7.854;2022-08-19T06:11:59;20.00;99.90
2453;DHT22;1238;47.994;7.854;2022-08-19T06:14:33;20.00;99.90
2453;DHT22;1238;47.994;7.854;2022-08-19T06:17:12;20.20;99.90
2453;DHT22;1238;47.994;7.854;2022-08-19T06:19:45;20.20;99.90
2453;DHT22;1238;47.994;7.854;2022-08-19T06:22:17;20.40;99.90
2453;DHT22;1238;47.994;7.854;2022-08-19T06:24:49;20.50;99.90
2453;DHT22;1238;47.994;7.854;2022-08-19T06:27:24;20.00;99.90
2453;DHT22;1238;47.994;7.854;2022-08-19T06:29:56;20.20;99.90
2453;DHT22;1238;47.994;7.854;2022-08-19T06:35:19;20.20;99.90
2453;DHT22;1238;47.994;7.854;2022-08-19T06:37:51;20.10;99.90
2453;DHT22;1238;47.994;7.854;2022-08-19T06:40:24;20.00;99.90
2453;DHT22;1238;47.994;7.854;2022-08-19T06:42:59;20.00;99.90
2453;DHT22;1238;47.994;7.854;2022-08-19T06:45:37;19.80;99.90
2453;DHT22;1238;47.994;7.854;2022-08-19T06:48:10;19.90;99.90
2453;DHT22;1238;47.994;7.854;2022-08-19T06:50:46;20.50;99.90
2453;DHT22;1238;47.994;7.854;2022-08-19T06:53:21;21.00;99.90
2453;DHT22;1238;47.994;7.854;2022-08-19T06:55:54;21.40;99.90
2453;DHT22;1238;47.994;7.854;2022-08-19T06:58:31;21.60;99.90
2453;DHT22;1238;47.994;7.854;2022-08-19T07:01:04;21.30;99.90
2453;DHT22;1238;47.994;7.854;2022-08-19T07:03:40;21.20;99.90
2453;DHT22;1238;47.994;7.854;2022-08-19T07:06:14;21.70;99.90
2453;DHT22;1238;47.994;7.854;2022-08-19T07:09:11;21.10;99.90
2453;DHT22;1238;47.994;7.854;2022-08-19T07:11:50;21.10;99.90
2453;DHT22;1238;47.994;7.854;2022-08-19T07:14:25;21.50;99.90
2453;DHT22;1238;47.994;7.854;2022-08-19T07:16:58;21.30;99.90
2453;DHT22;1238;47.994;7.854;2022-08-19T07:19:30;21.70;99.90
2453;DHT22;1238;47.994;7.854;2022-08-19T07:22:05;21.70;99.90
2453;DHT22;1238;47.994;7.854;2022-08-19T07:24:44;21.40;99.90
2453;DHT22;1238;47.994;7.854;2022-08-19T07:27:22;21.30;99.90
2453;DHT22;1238;47.994;7.854;2022-08-19T07:29:56;21.50;99.90
2453;DHT22;1238;47.994;7.854;2022-08-19T07:32:30;21.60;99.90
2453;DHT22;1238;47.994;7.854;2022-08-19T07:35:03;21.70;99.90
2453;DHT22;1238;47.994;7.854;2022-08-19T07:37:39;21.60;99.90
2453;DHT22;1238;47.994;7.854;2022-08-19T07:40:16;21.80;99.90
2453;DHT22;1238;47.994;7.854;2022-08-19T07:42:48;21.90;99.90
2453;DHT22;1238;47.994;7.854;2022-08-19T07:45:20;21.60;99.90
2453;DHT22;1238;47.994;7.854;2022-08-19T07:47:52;21.40;99.90
2453;DHT22;1238;47.994;7.854;2022-08-19T07:50:25;21.70;99.90
2453;DHT22;1238;47.994;7.854;2022-08-19T07:52:57;21.80;99.90
2453;DHT22;1238;47.994;7.854;2022-08-19T07:55:29;21.50;99.90
2453;DHT22;1238;47.994;7.854;2022-08-19T07:58:18;21.30;99.90
2453;DHT22;1238;47.994;7.854;2022-08-19T08:00:51;21.40;99.90
2453;DHT22;1238;47.994;7.854;2022-08-19T08:03:24;21.70;99.90
2453;DHT22;1238;47.994;7.854;2022-08-19T08:06:17;21.80;99.90
2453;DHT22;1238;47.994;7.854;2022-08-19T08:09:08;21.60;99.90
2453;DHT22;1238;47.994;7.854;2022-08-19T08:11:51;21.50;99.90
2453;DHT22;1238;47.994;7.854;2022-08-19T08:14:36;21.60;99.90
2453;DHT22;1238;47.994;7.854;2022-08-19T08:17:16;21.40;99.90
2453;DHT22;1238;47.994;7.854;2022-08-19T08:20:09;21.30;99.90
2453;DHT22;1238;47.994;7.854;2022-08-19T08:22:45;21.10;99.90
2453;DHT22;1238;47.994;7.854;2022-08-19T08:25:37;21.10;99.90
2453;DHT22;1238;47.994;7.854;2022-08-19T08:28:10;21.10;99.90
2453;DHT22;1238;47.994;7.854;2022-08-19T08:30:49;21.20;99.90
2453;DHT22;1238;47.994;7.854;2022-08-19T08:33:24;21.30;99.90
2453;DHT22;1238;47.994;7.854;2022-08-19T08:36:06;21.40;99.90
2453;DHT22;1238;47.994;7.854;2022-08-19T08:38:43;21.20;99.90
2453;DHT22;1238;47.994;7.854;2022-08-19T08:41:23;21.20;99.90
2453;DHT22;1238;47.994;7.854;2022-08-19T08:43:58;21.20;99.90
2453;DHT22;1238;47.994;7.854;2022-08-19T08:46:38;21.10;99.90
2453;DHT22;1238;47.994;7.854;2022-08-19T08:52:24;21.30;99.90
2453;DHT22;1238;47.994;7.854;2022-08-19T08:55:08;21.30;99.90
2453;DHT22;1238;47.994;7.854;2022-08-19T09:00:25;21.60;99.90
2453;DHT22;1238;47.994;7.854;2022-08-19T09:02:59;21.80;99.90
2453;DHT22;1238;47.994;7.854;2022-08-19T09:17:24;21.70;99.90
2453;DHT22;1238;47.994;7.854;2022-08-19T09:22:41;21.90;99.90
2453;DHT22;1238;47.994;7.854;2022-08-19T09:25:21;22.00;99.90
2453;DHT22;1238;47.994;7.854;2022-08-19T09:28:00;22.20;99.90
2453;DHT22;1238;47.994;7.854;2022-08-19T09:30:41;22.10;99.90
2453;DHT22;1238;47.994;7.854;2022-08-19T09:33:13;22.50;99.90
2453;DHT22;1238;47.994;7.854;2022-08-19T09:35:46;22.00;99.90
2453;DHT22;1238;47.994;7.854;2022-08-19T09:38:24;21.80;99.90
2453;DHT22;1238;47.994;7.854;2022-08-19T09:41:03;22.10;99.90
2453;DHT22;1238;47.994;7.854;2022-08-19T09:43:38;22.30;99.90
2453;DHT22;1238;47.994;7.854;2022-08-19T09:46:19;22.30;99.90
2453;DHT22;1238;47.994;7.854;2022-08-19T09:48:57;22.50;99.90
2453;DHT22;1238;47.994;7.854;2022-08-19T09:51:37;22.70;99.90
2453;DHT22;1238;47.994;7.854;2022-08-19T09:54:11;22.60;99.90
2453;DHT22;1238;47.994;7.854;2022-08-19T09:56:44;23.10;99.90
2453;DHT22;1238;47.994;7.854;2022-08-19T09:59:16;23.10;99.90
2453;DHT22;1238;47.994;7.854;2022-08-19T10:01:48;23.30;99.90
2453;DHT22;1238;47.994;7.854;2022-08-19T10:04:21;25.10;99.90
2453;DHT22;1238;47.994;7.854;2022-08-19T10:06:56;23.60;99.90
2453;DHT22;1238;47.994;7.854;2022-08-19T10:09:28;24.30;99.90
2453;DHT22;1238;47.994;7.854;2022-08-19T10:12:06;24.70;99.90
2453;DHT22;1238;47.994;7.854;2022-08-19T10:14:42;24.10;99.90
2453;DHT22;1238;47.994;7.854;2022-08-19T10:17:14;24.10;99.90
2453;DHT22;1238;47.994;7.854;2022-08-19T10:19:53;23.10;99.90
2453;DHT22;1238;47.994;7.854;2022-08-19T10:22:27;23.30;99.90
2453;DHT22;1238;47.994;7.854;2022-08-19T10:25:02;23.20;99.90
2453;DHT22;1238;47.994;7.854;2022-08-19T10:27:34;23.20;99.90
2453;DHT22;1238;47.994;7.854;2022-08-19T10:30:07;23.50;99.90
2453;DHT22;1238;47.994;7.854;2022-08-19T10:32:44;23.20;99.90
2453;DHT22;1238;47.994;7.854;2022-08-19T10:35:18;23.10;99.90
2453;DHT22;1238;47.994;7.854;2022-08-19T10:37:53;23.10;99.90
2453;DHT22;1238;47.994;7.854;2022-08-19T10:40:28;22.90;99.90
2453;DHT22;1238;47.994;7.854;2022-08-19T10:43:00;22.80;99.90
2453;DHT22;1238;47.994;7.854;2022-08-19T10:45:33;22.70;99.90
2453;DHT22;1238;47.994;7.854;2022-08-19T10:48:05;22.70;99.90
2453;DHT22;1238;47.994;7.854;2022-08-19T10:50:43;22.70;99.90
2453;DHT22;1238;47.994;7.854;2022-08-19T10:53:35;22.70;99.90
2453;DHT22;1238;47.994;7.854;2022-08-19T10:56:08;22.70;99.90
2453;DHT22;1238;47.994;7.854;2022-08-19T10:58:59;22.60;99.90
2453;DHT22;1238;47.994;7.854;2022-08-19T11:01:33;23.80;99.90
2453;DHT22;1238;47.994;7.854;2022-08-19T11:04:07;24.60;99.90
2453;DHT22;1238;47.994;7.854;2022-08-19T11:06:46;24.90;99.90
2453;DHT22;1238;47.994;7.854;2022-08-19T11:09:22;23.80;99.90
2453;DHT22;1238;47.994;7.854;2022-08-19T11:12:05;24.00;99.90
2453;DHT22;1238;47.994;7.854;2022-08-19T11:14:39;24.10;99.90
2453;DHT22;1238;47.994;7.854;2022-08-19T11:17:12;24.40;99.90
2453;DHT22;1238;47.994;7.854;2022-08-19T11:19:46;25.40;99.90
2453;DHT22;1238;47.994;7.854;2022-08-19T11:22:20;25.90;99.90
2453;DHT22;1238;47.994;7.854;2022-08-19T11:24:52;26.10;99.90
2453;DHT22;1238;47.994;7.854;2022-08-19T11:27:24;25.90;99.90
2453;DHT22;1238;47.994;7.854;2022-08-19T11:29:56;26.10;99.90
2453;DHT22;1238;47.994;7.854;2022-08-19T11:32:29;25.90;99.90
2453;DHT22;1238;47.994;7.854;2022-08-19T11:35:01;25.70;99.90
2453;DHT22;1238;47.994;7.854;2022-08-19T11:37:34;25.10;99.90
2453;DHT22;1238;47.994;7.854;2022-08-19T11:40:09;26.00;99.90
2453;DHT22;1238;47.994;7.854;2022-08-19T11:42:44;25.00;99.90
2453;DHT22;1238;47.994;7.854;2022-08-19T11:45:28;24.90;99.90
2453;DHT22;1238;47.994;7.854;2022-08-19T11:48:02;24.80;99.90
2453;DHT22;1238;47.994;7.854;2022-08-19T11:50:35;25.80;99.90
2453;DHT22;1238;47.994;7.854;2022-08-19T11:53:08;24.60;99.90
2453;DHT22;1238;47.994;7.854;2022-08-19T11:55:41;24.50;99.90
2453;DHT22;1238;47.994;7.854;2022-08-19T11:58:16;25.10;99.90
2453;DHT22;1238;47.994;7.854;2022-08-19T12:00:50;27.50;99.90
2453;DHT22;1238;47.994;7.854;2022-08-19T12:03:22;25.50;99.90
2453;DHT22;1238;47.994;7.854;2022-08-19T12:05:55;25.60;99.90
2453;DHT22;1238;47.994;7.854;2022-08-19T12:08:27;25.50;99.90
2453;DHT22;1238;47.994;7.854;2022-08-19T12:10:59;25.60;99.90
2453;DHT22;1238;47.994;7.854;2022-08-19T12:13:33;25.40;99.90
2453;DHT22;1238;47.994;7.854;2022-08-19T12:16:11;25.10;99.90
2453;DHT22;1238;47.994;7.854;2022-08-19T12:18:44;25.20;99.90
2453;DHT22;1238;47.994;7.854;2022-08-19T12:21:20;25.40;99.90
2453;DHT22;1238;47.994;7.854;2022-08-19T12:23:54;25.70;99.90
2453;DHT22;1238;47.994;7.854;2022-08-19T12:26:28;25.70;99.90
2453;DHT22;1238;47.994;7.854;2022-08-19T12:29:01;25.80;99.90
2453;DHT22;1238;47.994;7.854;2022-08-19T12:31:33;25.80;99.90
2453;DHT22;1238;47.994;7.854;2022-08-19T12:34:06;25.90;99.90
2453;DHT22;1238;47.994;7.854;2022-08-19T12:36:39;26.10;99.90
2453;DHT22;1238;47.994;7.854;2022-08-19T12:39:12;25.90;99.90
2453;DHT22;1238;47.994;7.854;2022-08-19T12:41:44;25.70;99.90
2453;DHT22;1238;47.994;7.854;2022-08-19T12:44:26;25.40;99.90
2453;DHT22;1238;47.994;7.854;2022-08-19T12:47:00;25.40;99.90
2453;DHT22;1238;47.994;7.854;2022-08-19T12:49:37;25.60;99.90
2453;DHT22;1238;47.994;7.854;2022-08-19T12:52:26;25.80;99.90
2453;DHT22;1238;47.994;7.854;2022-08-19T12:54:59;25.90;99.90
2453;DHT22;1238;47.994;7.854;2022-08-19T12:57:32;25.80;99.90
2453;DHT22;1238;47.994;7.854;2022-08-19T13:00:10;26.00;99.90
2453;DHT22;1238;47.994;7.854;2022-08-19T13:02:45;26.30;99.90
2453;DHT22;1238;47.994;7.854;2022-08-19T13:05:24;26.10;99.90
2453;DHT22;1238;47.994;7.854;2022-08-19T13:07:57;26.50;99.90
2453;DHT22;1238;47.994;7.854;2022-08-19T13:10:33;25.80;99.90
2453;DHT22;1238;47.994;7.854;2022-08-19T13:13:09;25.70;99.90
2453;DHT22;1238;47.994;7.854;2022-08-19T13:15:44;25.50;99.90
2453;DHT22;1238;47.994;7.854;2022-08-19T13:18:17;25.60;99.90
2453;DHT22;1238;47.994;7.854;2022-08-19T13:20:49;25.80;99.90
2453;DHT22;1238;47.994;7.854;2022-08-19T13:23:24;25.90;99.90
2453;DHT22;1238;47.994;7.854;2022-08-19T13:25:58;25.50;99.90
2453;DHT22;1238;47.994;7.854;2022-08-19T13:28:31;25.50;99.90
2453;DHT22;1238;47.994;7.854;2022-08-19T13:31:25;25.70;99.90
2453;DHT22;1238;47.994;7.854;2022-08-19T13:34:19;25.60;99.90
2453;DHT22;1238;47.994;7.854;2022-08-19T13:36:53;26.00;99.90
2453;DHT22;1238;47.994;7.854;2022-08-19T13:39:27;27.30;99.90
2453;DHT22;1238;47.994;7.854;2022-08-19T13:42:00;26.10;99.90
2453;DHT22;1238;47.994;7.854;2022-08-19T13:44:33;28.00;99.90
2453;DHT22;1238;47.994;7.854;2022-08-19T13:47:06;26.80;99.90
2453;DHT22;1238;47.994;7.854;2022-08-19T13:49:39;28.50;99.90
2453;DHT22;1238;47.994;7.854;2022-08-19T13:52:11;28.60;99.90
2453;DHT22;1238;47.994;7.854;2022-08-19T13:54:44;26.70;99.90
2453;DHT22;1238;47.994;7.854;2022-08-19T13:57:16;27.10;99.90
2453;DHT22;1238;47.994;7.854;2022-08-19T13:59:48;27.30;99.90
2453;DHT22;1238;47.994;7.854;2022-08-19T14:02:20;27.50;99.90
2453;DHT22;1238;47.994;7.854;2022-08-19T14:04:53;26.20;99.90
2453;DHT22;1238;47.994;7.854;2022-08-19T14:07:25;26.00;99.90
2453;DHT22;1238;47.994;7.854;2022-08-19T14:09:57;26.10;99.90
2453;DHT22;1238;47.994;7.854;2022-08-19T14:12:29;27.20;99.90
2453;DHT22;1238;47.994;7.854;2022-08-19T14:15:05;28.10;99.90
2453;DHT22;1238;47.994;7.854;2022-08-19T14:17:39;27.60;99.90
2453;DHT22;1238;47.994;7.854;2022-08-19T14:20:13;27.20;99.90
2453;DHT22;1238;47.994;7.854;2022-08-19T14:22:49;27.10;99.90
2453;DHT22;1238;47.994;7.854;2022-08-19T14:25:25;26.80;99.90
2453;DHT22;1238;47.994;7.854;2022-08-19T14:27:58;27.80;99.90
2453;DHT22;1238;47.994;7.854;2022-08-19T14:30:32;28.40;99.90
2453;DHT22;1238;47.994;7.854;2022-08-19T14:33:05;27.20;99.90
2453;DHT22;1238;47.994;7.854;2022-08-19T14:35:39;25.60;99.90
2453;DHT22;1238;47.994;7.854;2022-08-19T14:38:17;23.10;99.90
2453;DHT22;1238;47.994;7.854;2022-08-19T14:41:22;25.00;99.90
2453;DHT22;1238;47.994;7.854;2022-08-19T14:43:55;24.90;99.90
2453;DHT22;1238;47.994;7.854;2022-08-19T14:46:28;27.40;99.90
2453;DHT22;1238;47.994;7.854;2022-08-19T14:49:00;24.50;99.90
2453;DHT22;1238;47.994;7.854;2022-08-19T14:51:40;24.40;99.90
2453;DHT22;1238;47.994;7.854;2022-08-19T14:54:13;24.30;99.90
2453;DHT22;1238;47.994;7.854;2022-08-19T14:56:46;25.40;99.90
2453;DHT22;1238;47.994;7.854;2022-08-19T14:59:18;23.90;99.90
2453;DHT22;1238;47.994;7.854;2022-08-19T15:01:51;23.50;99.90
2453;DHT22;1238;47.994;7.854;2022-08-19T15:04:23;23.60;99.90
2453;DHT22;1238;47.994;7.854;2022-08-19T15:06:55;23.70;99.90
2453;DHT22;1238;47.994;7.854;2022-08-19T15:09:28;23.70;99.90
2453;DHT22;1238;47.994;7.854;2022-08-19T15:12:00;24.90;99.90
2453;DHT22;1238;47.994;7.854;2022-08-19T15:14:36;23.50;99.90
2453;DHT22;1238;47.994;7.854;2022-08-19T15:17:09;24.00;99.90
2453;DHT22;1238;47.994;7.854;2022-08-19T15:19:42;25.30;99.90
2453;DHT22;1238;47.994;7.854;2022-08-19T15:22:14;24.60;99.90
2453;DHT22;1238;47.994;7.854;2022-08-19T15:24:47;23.40;99.90
2453;DHT22;1238;47.994;7.854;2022-08-19T15:27:19;24.50;99.90
2453;DHT22;1238;47.994;7.854;2022-08-19T15:29:52;24.70;99.90
2453;DHT22;1238;47.994;7.854;2022-08-19T15:32:32;24.50;99.90
2453;DHT22;1238;47.994;7.854;2022-08-19T15:35:06;23.70;99.90
2453;DHT22;1238;47.994;7.854;2022-08-19T15:37:39;23.60;99.90
2453;DHT22;1238;47.994;7.854;2022-08-19T15:40:11;23.80;99.90
2453;DHT22;1238;47.994;7.854;2022-08-19T15:42:44;24.90;99.90
2453;DHT22;1238;47.994;7.854;2022-08-19T15:45:18;25.40;99.90
2453;DHT22;1238;47.994;7.854;2022-08-19T15:47:50;24.20;99.90
2453;DHT22;1238;47.994;7.854;2022-08-19T15:50:23;23.90;99.90
2453;DHT22;1238;47.994;7.854;2022-08-19T15:53:03;25.20;99.90
2453;DHT22;1238;47.994;7.854;2022-08-19T15:55:43;25.40;99.90
2453;DHT22;1238;47.994;7.854;2022-08-19T15:58:16;24.20;99.90
2453;DHT22;1238;47.994;7.854;2022-08-19T16:01:07;24.20;99.90
2453;DHT22;1238;47.994;7.854;2022-08-19T16:03:59;24.40;99.90
2453;DHT22;1238;47.994;7.854;2022-08-19T16:06:53;24.60;99.90
2453;DHT22;1238;47.994;7.854;2022-08-19T16:09:28;24.30;99.90
2453;DHT22;1238;47.994;7.854;2022-08-19T16:12:03;24.10;99.90
2453;DHT22;1238;47.994;7.854;2022-08-19T16:14:37;23.90;99.90
2453;DHT22;1238;47.994;7.854;2022-08-19T16:17:10;23.90;99.90
2453;DHT22;1238;47.994;7.854;2022-08-19T16:19:43;24.00;99.90
2453;DHT22;1238;47.994;7.854;2022-08-19T16:22:28;25.20;99.90
2453;DHT22;1238;47.994;7.854;2022-08-19T16:25:00;24.30;99.90
2453;DHT22;1238;47.994;7.854;2022-08-19T16:27:34;26.60;99.90
2453;DHT22;1238;47.994;7.854;2022-08-19T16:30:07;24.00;99.90
2453;DHT22;1238;47.994;7.854;2022-08-19T16:32:43;24.00;99.90
2453;DHT22;1238;47.994;7.854;2022-08-19T16:35:16;24.00;99.90
2453;DHT22;1238;47.994;7.854;2022-08-19T16:37:48;24.10;99.90
2453;DHT22;1238;47.994;7.854;2022-08-19T16:40:20;23.90;99.90
2453;DHT22;1238;47.994;7.854;2022-08-19T16:42:53;23.10;99.90
2453;DHT22;1238;47.994;7.854;2022-08-19T16:45:25;24.60;99.90
2453;DHT22;1238;47.994;7.854;2022-08-19T16:47:57;24.40;99.90
2453;DHT22;1238;47.994;7.854;2022-08-19T16:50:29;24.30;99.90
2453;DHT22;1238;47.994;7.854;2022-08-19T16:53:22;25.40;99.90
2453;DHT22;1238;47.994;7.854;2022-08-19T16:56:02;24.60;99.90
2453;DHT22;1238;47.994;7.854;2022-08-19T16:58:35;24.30;99.90
2453;DHT22;1238;47.994;7.854;2022-08-19T17:01:09;26.90;99.90
2453;DHT22;1238;47.994;7.854;2022-08-19T17:03:42;23.00;99.90
2453;DHT22;1238;47.994;7.854;2022-08-19T17:06:22;24.50;99.90
2453;DHT22;1238;47.994;7.854;2022-08-19T17:08:58;24.50;99.90
2453;DHT22;1238;47.994;7.854;2022-08-19T17:11:31;24.30;99.90
2453;DHT22;1238;47.994;7.854;2022-08-19T17:14:04;25.00;99.90
2453;DHT22;1238;47.994;7.854;2022-08-19T17:16:36;24.30;99.90
2453;DHT22;1238;47.994;7.854;2022-08-19T17:19:09;24.20;99.90
2453;DHT22;1238;47.994;7.854;2022-08-19T17:21:41;25.20;99.90